createdAt,value
2023-05-25T00:01:49.323Z,67.90
2023-05-25T00:04:19.612Z,69.16
2023-05-25T00:06:47.632Z,68.50
2023-05-25T00:09:15.506Z,68.65
2023-05-25T00:11:43.349Z,69.20
2023-05-25T00:14:10.900Z,70.15
2023-05-25T00:16:40.538Z,69.61
2023-05-25T00:19:10.804Z,70.55
2023-05-25T00:21:39.405Z,69.40
2023-05-25T00:24:07.624Z,68.25
2023-05-25T00:26:35.764Z,69.61
2023-05-25T00:29:04.378Z,69.99
2023-05-25T00:31:33.536Z,69.95
2023-05-25T00:34:01.551Z,70.04
2023-05-25T00:36:28.996Z,69.32
2023-05-25T00:38:56.474Z,68.35
2023-05-25T00:41:25.148Z,68.45
2023-05-25T00:43:52.549Z,66.75
2023-05-25T00:46:20.083Z,65.97
2023-05-25T00:48:48.944Z,66.60
2023-05-25T00:51:17.397Z,66.16
2023-05-25T00:53:44.925Z,66.82
2023-05-25T00:56:18.177Z,66.72
2023-05-25T00:58:47.055Z,66.46
2023-05-25T01:01:15.654Z,66.27
2023-05-25T01:03:46.865Z,66.52
2023-05-25T01:06:15.944Z,65.84
2023-05-25T01:08:49.604Z,65.78
2023-05-25T01:11:20.266Z,64.69
2023-05-25T01:13:49.129Z,64.08
2023-05-25T01:16:17.131Z,63.76
2023-05-25T01:18:44.593Z,63.31
2023-05-25T01:21:37.930Z,62.69
2023-05-25T01:24:32.559Z,62.96
2023-05-25T01:27:05.828Z,62.96
2023-05-25T01:29:35.367Z,62.56
2023-05-25T01:32:04.581Z,61.50
2023-05-25T01:34:33.958Z,62.38
2023-05-25T01:37:01.985Z,63.45
2023-05-25T01:39:29.454Z,62.34
2023-05-25T01:41:57.016Z,62.45
2023-05-25T01:44:26.106Z,61.57
2023-05-25T01:47:04.594Z,61.47
2023-05-25T01:49:46.465Z,61.76
2023-05-25T01:52:22.204Z,62.08
2023-05-25T01:55:19.593Z,62.09
2023-05-25T01:57:50.640Z,62.11
2023-05-25T02:00:19.745Z,61.99
2023-05-25T02:02:48.335Z,62.48
2023-05-25T02:05:16.277Z,62.93
2023-05-25T02:07:43.736Z,62.44
2023-05-25T02:10:11.507Z,62.86
2023-05-25T02:12:38.922Z,62.67
2023-05-25T02:15:06.788Z,62.41
2023-05-25T02:17:37.241Z,61.93
2023-05-25T02:20:07.012Z,61.28
2023-05-25T02:22:35.058Z,61.62
2023-05-25T02:25:02.544Z,62.29
2023-05-25T02:27:30.724Z,61.91
2023-05-25T02:29:58.196Z,62.15
2023-05-25T02:32:26.096Z,62.26
2023-05-25T02:34:53.854Z,62.22
2023-05-25T02:37:21.291Z,62.07
2023-05-25T02:39:49.311Z,62.43
2023-05-25T02:42:17.057Z,61.94
2023-05-25T02:44:48.507Z,62.07
2023-05-25T02:47:16.654Z,62.66
2023-05-25T02:49:45.468Z,62.52
2023-05-25T02:52:13.057Z,62.67
2023-05-25T02:54:41.714Z,62.71
2023-05-25T02:57:10.265Z,62.72
2023-05-25T02:59:37.778Z,62.14
2023-05-25T03:02:05.571Z,62.23
2023-05-25T03:04:34.440Z,62.35
2023-05-25T03:07:02.425Z,62.96
2023-05-25T03:09:30.421Z,63.24
2023-05-25T03:12:00.761Z,63.50
2023-05-25T03:14:28.204Z,63.71
2023-05-25T03:16:56.369Z,63.64
2023-05-25T03:19:24.214Z,63.82
2023-05-25T03:21:51.621Z,64.06
2023-05-25T03:24:19.760Z,63.88
2023-05-25T03:26:47.565Z,65.60
2023-05-25T03:29:15.148Z,66.32
2023-05-25T03:31:42.646Z,65.53
2023-05-25T03:34:10.624Z,66.64
2023-05-25T03:36:39.103Z,66.40
2023-05-25T03:39:07.205Z,65.47
2023-05-25T03:41:35.090Z,66.17
2023-05-25T03:44:02.506Z,64.64
2023-05-25T03:46:29.935Z,65.53
2023-05-25T03:48:57.674Z,63.91
2023-05-25T03:51:25.099Z,64.30
2023-05-25T03:53:52.489Z,64.31
2023-05-25T03:56:20.248Z,63.94
2023-05-25T03:58:47.631Z,64.55
2023-05-25T04:01:15.074Z,64.90
2023-05-25T04:03:42.887Z,64.65
2023-05-25T04:06:10.374Z,64.99
2023-05-25T04:08:37.787Z,64.91
2023-05-25T04:11:05.985Z,63.85
2023-05-25T04:13:36.291Z,63.94
2023-05-25T04:16:03.981Z,62.77
2023-05-25T04:18:31.902Z,61.84
2023-05-25T04:20:59.861Z,60.96
2023-05-25T04:23:27.834Z,59.78
2023-05-25T04:25:55.864Z,59.43
2023-05-25T04:28:23.234Z,60.10
2023-05-25T04:30:51.359Z,59.05
2023-05-25T04:33:20.645Z,59.05
2023-05-25T04:35:50.588Z,59.25
2023-05-25T04:38:20.720Z,59.48
2023-05-25T04:40:48.471Z,60.38
2023-05-25T04:43:18.200Z,58.99
2023-05-25T04:45:47.157Z,61.15
2023-05-25T04:48:15.829Z,60.58
2023-05-25T04:50:43.424Z,60.88
2023-05-25T04:53:11.171Z,61.08
2023-05-25T04:55:40.068Z,60.47
2023-05-25T04:58:07.593Z,60.13
2023-05-25T05:00:35.044Z,61.52
2023-05-25T05:03:02.908Z,61.48
2023-05-25T05:05:30.825Z,61.50
2023-05-25T05:07:59.780Z,61.63
2023-05-25T05:10:27.618Z,61.49
2023-05-25T05:12:56.402Z,60.82
2023-05-25T05:15:23.881Z,61.12
2023-05-25T05:17:51.713Z,60.49
2023-05-25T05:20:19.321Z,61.16
2023-05-25T05:22:46.868Z,60.15
2023-05-25T05:25:14.579Z,58.80
2023-05-25T05:27:42.006Z,58.45
2023-05-25T05:30:10.224Z,58.37
2023-05-25T05:32:38.211Z,57.28
2023-05-25T05:35:06.088Z,56.67
2023-05-25T05:37:33.755Z,57.28
2023-05-25T05:40:01.529Z,56.39
2023-05-25T05:42:28.969Z,56.37
2023-05-25T05:44:56.399Z,56.96
2023-05-25T05:47:24.173Z,55.83
2023-05-25T05:49:51.725Z,55.46
2023-05-25T05:52:19.287Z,55.81
2023-05-25T05:54:46.976Z,56.20
2023-05-25T05:57:15.431Z,56.04
2023-05-25T05:59:43.308Z,56.47
2023-05-25T06:02:11.073Z,54.78
2023-05-25T06:04:39.055Z,54.84
2023-05-25T06:07:07.042Z,54.14
2023-05-25T06:09:35.465Z,55.93
2023-05-25T06:12:06.258Z,56.10
2023-05-25T06:14:34.520Z,56.70
2023-05-25T06:17:02.565Z,56.31
2023-05-25T06:19:30.686Z,56.07
2023-05-25T06:21:58.140Z,54.47
2023-05-25T06:24:25.721Z,54.38
2023-05-25T06:26:53.432Z,53.90
2023-05-25T06:29:21.026Z,53.37
2023-05-25T06:31:48.419Z,54.49
2023-05-25T06:34:16.083Z,54.85
2023-05-25T06:36:43.565Z,53.61
2023-05-25T06:39:11.050Z,53.32
2023-05-25T06:41:39.327Z,52.72
2023-05-25T06:44:07.436Z,56.30
2023-05-25T06:46:40.024Z,57.43
2023-05-25T06:49:09.071Z,57.74
2023-05-25T06:51:37.300Z,57.24
2023-05-25T06:54:04.883Z,56.57
2023-05-25T06:56:32.587Z,54.46
2023-05-25T06:59:00.161Z,54.49
2023-05-25T07:01:27.568Z,54.37
2023-05-25T07:03:55.280Z,55.26
2023-05-25T07:06:22.726Z,56.01
2023-05-25T07:08:50.152Z,56.30
2023-05-25T07:11:20.737Z,55.85
2023-05-25T07:13:48.462Z,55.32
2023-05-25T07:16:16.068Z,54.50
2023-05-25T07:18:43.825Z,54.97
2023-05-25T07:21:11.465Z,55.87
2023-05-25T07:23:41.100Z,58.08
2023-05-25T07:26:08.958Z,54.66
2023-05-25T07:28:36.344Z,54.91
2023-05-25T07:31:03.787Z,53.58
2023-05-25T07:33:31.540Z,54.60
2023-05-25T07:35:59.202Z,52.76
2023-05-25T07:38:26.710Z,54.17
2023-05-25T07:40:54.437Z,54.77
2023-05-25T07:43:22.250Z,54.53
2023-05-25T07:45:49.753Z,54.85
2023-05-25T07:48:18.762Z,53.99
2023-05-25T07:50:46.332Z,54.54
2023-05-25T07:53:13.882Z,53.28
2023-05-25T07:55:41.707Z,54.06
2023-05-25T07:58:09.141Z,53.63
2023-05-25T08:00:36.671Z,55.39
2023-05-25T08:03:04.748Z,54.24
2023-05-25T08:05:32.338Z,55.04
2023-05-25T08:07:59.786Z,54.47
2023-05-25T08:10:32.069Z,54.75
2023-05-25T08:12:59.762Z,54.89
2023-05-25T08:15:27.487Z,54.16
2023-05-25T08:17:56.516Z,55.12
2023-05-25T08:20:27.395Z,53.65
2023-05-25T08:22:55.110Z,52.62
2023-05-25T08:25:22.785Z,54.67
2023-05-25T08:27:50.409Z,53.36
2023-05-25T08:30:18.046Z,53.34
2023-05-25T08:32:45.543Z,53.54
2023-05-25T08:35:14.245Z,52.73
2023-05-25T08:37:43.511Z,53.11
2023-05-25T08:40:16.424Z,54.16
2023-05-25T08:42:45.205Z,54.54
2023-05-25T08:45:26.447Z,54.26
2023-05-25T08:48:01.571Z,51.53
2023-05-25T08:50:31.084Z,51.51
2023-05-25T08:53:02.725Z,51.08
2023-05-25T08:55:36.051Z,52.28
2023-05-25T08:58:10.684Z,51.18
2023-05-25T09:00:43.081Z,50.03
2023-05-25T09:03:20.688Z,50.32
2023-05-25T09:05:48.980Z,49.57
2023-05-25T09:08:17.357Z,48.66
2023-05-25T09:10:44.804Z,49.00
2023-05-25T09:13:21.805Z,49.71
2023-05-25T09:15:50.910Z,49.72
2023-05-25T09:18:18.933Z,50.44
2023-05-25T09:20:47.320Z,51.76
2023-05-25T09:23:16.019Z,50.42
2023-05-25T09:25:44.523Z,49.84
2023-05-25T09:30:42.557Z,46.58
2023-05-25T09:33:14.423Z,48.50
2023-05-25T09:35:41.885Z,48.71
2023-05-25T09:38:09.414Z,47.91
2023-05-25T09:40:38.268Z,49.58
2023-05-25T09:43:05.786Z,50.96
2023-05-25T09:45:33.337Z,50.53
2023-05-25T09:48:01.365Z,49.45
2023-05-25T09:50:29.689Z,50.47
2023-05-25T09:53:00.067Z,49.19
2023-05-25T09:55:40.063Z,48.78
2023-05-25T09:58:13.582Z,48.49
2023-05-25T10:00:41.546Z,49.29
2023-05-25T10:03:09.390Z,46.81
2023-05-25T10:05:36.793Z,48.20
2023-05-25T10:08:04.597Z,46.74
2023-05-25T10:10:32.522Z,47.85
2023-05-25T10:13:00.720Z,47.52
2023-05-25T10:15:28.356Z,47.42
2023-05-25T10:17:57.243Z,45.39
2023-05-25T10:20:28.267Z,46.74
2023-05-25T10:23:01.175Z,47.33
2023-05-25T10:25:34.829Z,49.84
2023-05-25T10:28:07.840Z,44.89
2023-05-25T10:30:37.027Z,45.37
2023-05-25T10:33:05.390Z,46.74
2023-05-25T10:35:42.392Z,47.53
2023-05-25T10:38:19.195Z,46.92
2023-05-25T10:40:50.832Z,46.69
2023-05-25T10:43:19.002Z,45.71
2023-05-25T10:45:47.854Z,45.32
2023-05-25T10:48:18.405Z,48.19
2023-05-25T10:50:51.940Z,46.32
2023-05-25T10:53:21.270Z,46.63
2023-05-25T10:55:51.973Z,46.66
2023-05-25T10:58:21.873Z,44.90
2023-05-25T11:01:02.708Z,43.68
2023-05-25T11:03:53.270Z,43.74
2023-05-25T11:06:22.881Z,44.49
2023-05-25T11:08:57.306Z,45.54
2023-05-25T11:11:43.111Z,45.57
2023-05-25T11:14:23.784Z,46.51
2023-05-25T11:17:12.039Z,45.88
2023-05-25T11:19:44.189Z,44.09
2023-05-25T11:22:18.031Z,46.45
2023-05-25T11:24:48.863Z,47.28
2023-05-25T11:27:22.735Z,47.65
2023-05-25T11:29:51.714Z,46.71
2023-05-25T11:32:19.370Z,46.60
2023-05-25T11:34:53.001Z,45.92
2023-05-25T11:37:22.044Z,47.04
2023-05-25T11:39:51.638Z,44.58
2023-05-25T11:42:23.943Z,47.44
2023-05-25T11:44:52.044Z,45.75
2023-05-25T11:47:23.203Z,45.42
2023-05-25T11:49:50.889Z,44.54
2023-05-25T11:52:20.059Z,43.06
2023-05-25T11:54:47.617Z,46.17
2023-05-25T11:57:17.127Z,45.89
2023-05-25T11:59:52.661Z,43.54
2023-05-25T12:02:20.977Z,42.59
2023-05-25T12:04:58.494Z,43.06
2023-05-25T12:07:26.808Z,43.17
2023-05-25T12:10:07.254Z,44.00
2023-05-25T12:12:42.069Z,43.31
2023-05-25T12:15:31.175Z,42.52
2023-05-25T12:17:58.684Z,42.40
2023-05-25T12:20:26.840Z,43.56
2023-05-25T12:22:54.430Z,44.43
2023-05-25T12:25:22.537Z,43.45
2023-05-25T12:28:10.146Z,41.93
2023-05-25T12:30:37.901Z,44.36
2023-05-25T12:33:06.032Z,41.48
2023-05-25T12:35:50.099Z,43.76
2023-05-25T12:38:19.815Z,42.77
2023-05-25T12:40:47.884Z,42.39
2023-05-25T12:43:16.958Z,40.40
2023-05-25T12:45:44.914Z,40.49
2023-05-25T12:48:12.696Z,41.75
2023-05-25T12:50:56.807Z,41.62
2023-05-25T12:53:25.247Z,41.14
2023-05-25T12:56:02.016Z,41.46
2023-05-25T12:58:30.247Z,42.70
2023-05-25T13:00:57.722Z,42.68
2023-05-25T13:03:25.148Z,41.66
2023-05-25T13:06:00.221Z,41.97
2023-05-25T13:08:28.682Z,39.81
2023-05-25T13:10:56.697Z,41.50
2023-05-25T13:13:24.131Z,42.18
2023-05-25T13:15:51.535Z,42.95
2023-05-25T13:18:19.230Z,41.74
2023-05-25T13:20:49.784Z,41.81
2023-05-25T13:23:18.888Z,42.15
2023-05-25T13:25:47.014Z,42.47
2023-05-25T13:28:14.369Z,42.71
2023-05-25T13:30:42.899Z,43.23
2023-05-25T13:33:10.946Z,43.42
2023-05-25T13:35:45.756Z,42.63
2023-05-25T13:38:15.723Z,43.34
2023-05-25T13:40:45.488Z,42.62
2023-05-25T13:43:13.531Z,42.58
2023-05-25T13:45:41.084Z,42.67
2023-05-25T13:48:09.059Z,42.38
2023-05-25T13:50:36.776Z,43.01
2023-05-25T13:53:04.190Z,43.18
2023-05-25T13:55:31.919Z,43.89
2023-05-25T13:57:59.733Z,42.12
2023-05-25T14:00:27.678Z,41.85
2023-05-25T14:02:55.610Z,42.55
2023-05-25T14:05:23.225Z,42.31
2023-05-25T14:07:50.712Z,42.44
2023-05-25T14:10:18.704Z,43.46
2023-05-25T14:12:46.152Z,41.61
2023-05-25T14:15:13.629Z,41.75
2023-05-25T14:17:41.358Z,40.49
2023-05-25T14:20:09.790Z,41.98
2023-05-25T14:22:37.234Z,42.75
2023-05-25T14:25:05.345Z,42.47
2023-05-25T14:27:32.797Z,43.33
2023-05-25T14:30:00.260Z,42.78
2023-05-25T14:32:27.963Z,43.15
2023-05-25T14:34:55.380Z,42.85
2023-05-25T14:37:22.797Z,42.86
2023-05-25T14:39:50.576Z,41.68
2023-05-25T14:42:17.996Z,42.53
2023-05-25T14:44:45.442Z,43.15
2023-05-25T14:47:13.196Z,41.15
2023-05-25T14:49:40.693Z,41.96
2023-05-25T14:52:08.091Z,42.44
2023-05-25T14:54:36.095Z,40.81
2023-05-25T14:57:03.497Z,42.08
2023-05-25T14:59:30.928Z,43.29
2023-05-25T15:01:58.645Z,43.04
2023-05-25T15:04:27.187Z,41.94
2023-05-25T15:06:54.695Z,42.16
2023-05-25T15:09:22.431Z,44.12
2023-05-25T15:11:49.849Z,42.19
2023-05-25T15:14:17.299Z,44.14
2023-05-25T15:16:45.116Z,44.52
2023-05-25T15:19:15.274Z,44.01
2023-05-25T15:21:45.485Z,44.07
2023-05-25T15:24:16.634Z,45.40
2023-05-25T15:26:44.218Z,44.58
2023-05-25T15:29:11.964Z,44.96
2023-05-25T15:31:39.422Z,44.32
2023-05-25T15:34:06.897Z,46.30
2023-05-25T15:36:34.607Z,46.09
2023-05-25T15:39:04.554Z,45.91
2023-05-25T15:41:31.961Z,44.67
2023-05-25T15:44:01.335Z,45.47
2023-05-25T15:46:29.046Z,45.64
2023-05-25T15:48:56.622Z,46.46
2023-05-25T15:51:24.351Z,45.83
2023-05-25T15:53:52.358Z,45.92
2023-05-25T15:56:19.833Z,46.32
2023-05-25T15:58:49.386Z,46.27
2023-05-25T16:01:16.895Z,47.17
2023-05-25T16:03:44.944Z,46.54
2023-05-25T16:06:12.470Z,46.17
2023-05-25T16:08:39.896Z,46.36
2023-05-25T16:11:09.299Z,46.06
2023-05-25T16:13:36.795Z,46.41
2023-05-25T16:16:04.280Z,46.20
2023-05-25T16:18:32.827Z,46.57
2023-05-25T16:21:00.260Z,47.14
2023-05-25T16:23:27.705Z,47.68
2023-05-25T16:25:55.424Z,46.18
2023-05-25T16:28:23.641Z,47.58
2023-05-25T16:30:53.988Z,47.70
2023-05-25T16:33:23.440Z,47.27
2023-05-25T16:35:53.693Z,47.20
2023-05-25T16:38:21.109Z,47.06
2023-05-25T16:40:48.794Z,47.29
2023-05-25T16:43:16.248Z,48.25
2023-05-25T16:45:43.987Z,47.35
2023-05-25T16:48:11.981Z,47.37
2023-05-25T16:50:39.432Z,47.67
2023-05-25T16:53:08.013Z,47.91
2023-05-25T16:55:35.794Z,48.35
2023-05-25T16:58:03.549Z,48.82
2023-05-25T17:00:30.969Z,48.47
2023-05-25T17:03:03.320Z,48.71
2023-05-25T17:05:31.536Z,48.51
2023-05-25T17:07:59.891Z,48.84
2023-05-25T17:10:27.332Z,48.67
2023-05-25T17:12:54.731Z,48.39
2023-05-25T17:15:22.458Z,49.66
2023-05-25T17:17:49.831Z,48.65
2023-05-25T17:20:17.482Z,49.66
2023-05-25T17:22:45.271Z,48.73
2023-05-25T17:25:12.747Z,49.36
2023-05-25T17:27:43.320Z,49.38
2023-05-25T17:30:11.632Z,50.09
2023-05-25T17:32:41.060Z,51.33
2023-05-25T17:35:09.204Z,51.22
2023-05-25T17:37:36.909Z,51.52
2023-05-25T17:40:05.416Z,50.87
2023-05-25T17:42:32.861Z,51.08
2023-05-25T17:45:00.612Z,50.84
2023-05-25T17:47:28.154Z,51.42
2023-05-25T17:49:56.011Z,51.19
2023-05-25T17:52:23.706Z,51.44
2023-05-25T17:54:51.107Z,51.61
2023-05-25T17:57:18.510Z,52.64
2023-05-25T17:59:46.204Z,52.59
2023-05-25T18:02:13.919Z,51.87
2023-05-25T18:04:41.802Z,50.85
2023-05-25T18:07:09.257Z,52.34
2023-05-25T18:09:36.648Z,53.36
2023-05-25T18:12:04.551Z,52.12
2023-05-25T18:14:35.304Z,52.82
2023-05-25T18:17:02.880Z,52.96
2023-05-25T18:19:30.692Z,53.59
2023-05-25T18:21:58.081Z,52.42
2023-05-25T18:24:25.557Z,54.06
2023-05-25T18:26:53.256Z,52.96
2023-05-25T18:29:21.532Z,52.74
2023-05-25T18:31:49.909Z,53.07
2023-05-25T18:34:17.623Z,53.80
2023-05-25T18:36:45.007Z,53.65
2023-05-25T18:39:12.415Z,53.05
2023-05-25T18:41:40.213Z,52.50
2023-05-25T18:44:08.128Z,53.21
2023-05-25T18:46:37.999Z,52.18
2023-05-25T18:49:06.066Z,52.69
2023-05-25T18:51:33.980Z,52.36
2023-05-25T18:54:01.440Z,52.21
2023-05-25T18:56:29.157Z,52.85
2023-05-25T18:58:57.137Z,52.71
2023-05-25T19:01:25.494Z,53.00
2023-05-25T19:03:54.272Z,53.37
2023-05-25T19:06:23.525Z,52.95
2023-05-25T19:08:51.213Z,53.52
2023-05-25T19:11:22.336Z,53.59
2023-05-25T19:13:49.806Z,53.57
2023-05-25T19:16:17.321Z,53.55
2023-05-25T19:18:45.194Z,53.71
2023-05-25T19:21:12.725Z,53.91
2023-05-25T19:23:41.679Z,53.79
2023-05-25T19:26:09.442Z,53.57
2023-05-25T19:28:36.889Z,53.81
2023-05-25T19:31:04.563Z,53.79
2023-05-25T19:33:32.213Z,53.52
2023-05-25T19:35:59.676Z,53.28
2023-05-25T19:38:34.097Z,53.96
2023-05-25T19:41:08.356Z,53.91
2023-05-25T19:43:36.199Z,54.00
2023-05-25T19:46:03.869Z,54.13
2023-05-25T19:48:31.888Z,54.98
2023-05-25T19:51:00.949Z,54.11
2023-05-25T19:53:29.993Z,54.34
2023-05-25T19:55:58.284Z,55.77
2023-05-25T19:58:25.686Z,55.51
2023-05-25T20:00:53.365Z,55.12
2023-05-25T20:03:21.337Z,57.01
2023-05-25T20:05:48.852Z,56.82
2023-05-25T20:08:16.273Z,58.33
2023-05-25T20:10:45.161Z,57.84
2023-05-25T20:13:12.667Z,58.42
2023-05-25T20:15:40.131Z,58.42
2023-05-25T20:18:07.990Z,58.12
2023-05-25T20:20:35.852Z,58.52
2023-05-25T20:23:03.314Z,57.75
2023-05-25T20:25:31.417Z,57.36
2023-05-25T20:27:58.857Z,57.77
2023-05-25T20:30:26.337Z,59.02
2023-05-25T20:32:54.045Z,58.67
2023-05-25T20:35:21.462Z,58.50
2023-05-25T20:37:48.939Z,58.48
2023-05-25T20:40:16.842Z,58.38
2023-05-25T20:42:44.332Z,58.36
2023-05-25T20:45:12.812Z,58.30
2023-05-25T20:47:40.812Z,58.32
2023-05-25T20:50:09.413Z,57.41
2023-05-25T20:52:37.828Z,57.11
2023-05-25T20:55:06.070Z,56.88
2023-05-25T20:57:33.480Z,56.67
2023-05-25T21:00:01.033Z,56.71
2023-05-25T21:02:28.972Z,58.80
2023-05-25T21:04:56.572Z,58.67
2023-05-25T21:07:24.017Z,59.19
2023-05-25T21:09:51.748Z,59.45
2023-05-25T21:12:19.364Z,59.36
2023-05-25T21:14:46.795Z,59.24
2023-05-25T21:17:15.009Z,58.31
2023-05-25T21:19:42.556Z,59.76
2023-05-25T21:22:11.353Z,59.38
2023-05-25T21:24:39.368Z,59.58
2023-05-25T21:27:06.809Z,59.76
2023-05-25T21:29:34.266Z,58.68
2023-05-25T21:32:01.993Z,58.00
2023-05-25T21:34:29.472Z,57.82
2023-05-25T21:36:56.902Z,59.36
2023-05-25T21:39:24.604Z,59.74
2023-05-25T21:41:52.035Z,59.88
2023-05-25T21:44:19.504Z,59.45
2023-05-25T21:46:47.408Z,59.04
2023-05-25T21:49:15.049Z,59.27
2023-05-25T21:51:42.480Z,60.18
2023-05-25T21:54:10.177Z,59.62
2023-05-25T21:56:37.585Z,59.12
2023-05-25T21:59:05.188Z,58.93
2023-05-25T22:01:32.997Z,58.85
2023-05-25T22:04:00.985Z,58.88
2023-05-25T22:06:28.770Z,59.14
2023-05-25T22:08:56.242Z,59.19
2023-05-25T22:11:24.587Z,60.95
2023-05-25T22:13:52.352Z,61.55
2023-05-25T22:16:20.063Z,60.69
2023-05-25T22:18:47.953Z,61.37
2023-05-25T22:21:15.810Z,59.88
2023-05-25T22:23:43.742Z,59.72
2023-05-25T22:26:11.477Z,59.07
2023-05-25T22:28:39.072Z,58.97
2023-05-25T22:31:06.687Z,58.93
2023-05-25T22:33:34.390Z,58.69
2023-05-25T22:36:01.827Z,59.03
2023-05-25T22:38:29.325Z,58.99
2023-05-25T22:40:57.066Z,60.35
2023-05-25T22:43:24.951Z,61.28
2023-05-25T22:45:54.115Z,61.04
2023-05-25T22:48:21.813Z,60.66
2023-05-25T22:50:49.245Z,60.89
2023-05-25T22:53:16.745Z,61.64
2023-05-25T22:55:47.200Z,60.84
2023-05-25T22:58:14.874Z,60.86
2023-05-25T23:00:42.409Z,61.87
2023-05-25T23:03:10.298Z,61.68
2023-05-25T23:05:37.859Z,62.00
2023-05-25T23:08:05.327Z,60.87
2023-05-25T23:10:33.010Z,61.88
2023-05-25T23:13:00.511Z,61.03
2023-05-25T23:15:28.590Z,62.17
2023-05-25T23:17:57.713Z,62.13
2023-05-25T23:20:25.222Z,62.12
2023-05-25T23:22:52.669Z,62.19
2023-05-25T23:25:20.529Z,60.89
2023-05-25T23:27:47.985Z,61.32
2023-05-25T23:30:15.562Z,62.20
2023-05-25T23:32:43.521Z,62.05
2023-05-25T23:35:11.002Z,61.06
2023-05-25T23:37:38.434Z,60.97
2023-05-25T23:40:06.719Z,60.84
2023-05-25T23:42:40.290Z,60.41
2023-05-25T23:45:08.488Z,61.19
2023-05-25T23:47:36.014Z,60.23
2023-05-25T23:50:06.628Z,61.21
2023-05-25T23:52:34.316Z,60.41
2023-05-25T23:55:01.848Z,61.39
2023-05-25T23:57:29.466Z,61.88
2023-05-25T23:59:57.139Z,62.12
